createdAt,value
2022-10-29T00:00:57.574Z,99.90
2022-10-29T00:03:26.403Z,99.90
2022-10-29T00:06:01.738Z,99.90
2022-10-29T00:08:31.249Z,99.90
2022-10-29T00:11:11.269Z,99.90
2022-10-29T00:13:38.891Z,99.90
2022-10-29T00:16:18.436Z,99.90
2022-10-29T00:18:46.361Z,99.90
2022-10-29T00:21:16.210Z,99.90
2022-10-29T00:23:43.803Z,99.90
2022-10-29T00:26:11.964Z,99.90
2022-10-29T00:28:39.297Z,99.90
2022-10-29T00:31:19.137Z,99.90
2022-10-29T00:33:47.738Z,99.90
2022-10-29T00:36:24.380Z,99.90
2022-10-29T00:38:51.836Z,99.90
2022-10-29T00:41:26.483Z,99.90
2022-10-29T00:44:22.668Z,99.90
2022-10-29T00:47:16.385Z,99.90
2022-10-29T00:49:47.192Z,99.90
2022-10-29T00:52:16.552Z,99.90
2022-10-29T00:54:46.430Z,99.90
2022-10-29T00:57:18.927Z,99.90
2022-10-29T01:02:23.741Z,99.90
2022-10-29T01:04:53.176Z,99.90
2022-10-29T01:07:22.232Z,99.90
2022-10-29T01:09:50.233Z,99.90
2022-10-29T01:12:52.610Z,99.90
2022-10-29T01:15:50.585Z,99.90
2022-10-29T01:18:27.158Z,99.90
2022-10-29T01:21:09.383Z,99.90
2022-10-29T01:23:45.511Z,99.90
2022-10-29T01:26:35.869Z,99.90
2022-10-29T01:29:18.574Z,99.90
2022-10-29T01:31:57.808Z,99.90
2022-10-29T01:34:33.059Z,99.90
2022-10-29T01:37:02.000Z,99.90
2022-10-29T01:39:47.910Z,99.90
2022-10-29T01:42:15.259Z,99.90
2022-10-29T01:45:06.774Z,99.90
2022-10-29T01:47:49.684Z,99.90
2022-10-29T01:50:21.864Z,99.90
2022-10-29T01:52:50.295Z,99.90
2022-10-29T01:55:22.752Z,99.90
2022-10-29T01:57:50.027Z,99.90
2022-10-29T02:00:19.705Z,99.90
2022-10-29T02:02:59.391Z,99.90
2022-10-29T02:05:49.515Z,99.90
2022-10-29T02:08:31.954Z,99.90
2022-10-29T02:11:08.247Z,99.90
2022-10-29T02:13:43.438Z,99.90
2022-10-29T02:16:12.474Z,99.90
2022-10-29T02:18:43.385Z,99.90
2022-10-29T02:21:10.899Z,99.90
2022-10-29T02:23:38.345Z,99.90
2022-10-29T02:26:05.820Z,99.90
2022-10-29T02:28:33.445Z,99.90
2022-10-29T02:31:00.688Z,99.90
2022-10-29T02:33:27.929Z,99.90
2022-10-29T02:35:55.306Z,99.90
2022-10-29T02:38:22.711Z,99.90
2022-10-29T02:40:49.985Z,99.90
2022-10-29T02:43:17.215Z,99.90
2022-10-29T02:45:45.440Z,99.90
2022-10-29T02:48:12.698Z,99.90
2022-10-29T02:50:40.074Z,99.90
2022-10-29T02:53:07.322Z,99.90
2022-10-29T02:55:34.555Z,99.90
2022-10-29T02:58:01.946Z,99.90
2022-10-29T03:00:29.198Z,99.90
2022-10-29T03:02:56.724Z,99.90
2022-10-29T03:05:24.114Z,99.90
2022-10-29T03:07:51.525Z,99.90
2022-10-29T03:10:18.797Z,99.90
2022-10-29T03:12:46.233Z,99.90
2022-10-29T03:15:13.625Z,99.90
2022-10-29T03:17:40.871Z,99.90
2022-10-29T03:20:08.732Z,99.90
2022-10-29T03:22:37.679Z,99.90
2022-10-29T03:25:06.785Z,99.90
2022-10-29T03:27:42.103Z,99.90
2022-10-29T03:30:17.015Z,99.90
2022-10-29T03:32:45.899Z,99.90
2022-10-29T03:35:15.482Z,99.90
2022-10-29T03:37:42.957Z,99.90
2022-10-29T03:40:10.800Z,99.90
2022-10-29T03:42:39.066Z,99.90
2022-10-29T03:45:06.746Z,99.90
2022-10-29T03:47:33.991Z,99.90
2022-10-29T03:50:01.667Z,99.90
2022-10-29T03:52:28.976Z,99.90
2022-10-29T03:54:56.554Z,99.90
2022-10-29T03:57:24.183Z,99.90
2022-10-29T03:59:52.774Z,99.90
2022-10-29T04:02:20.439Z,99.90
2022-10-29T04:04:48.120Z,99.90
2022-10-29T04:07:15.685Z,99.90
2022-10-29T04:09:42.894Z,99.90
2022-10-29T04:12:10.494Z,99.90
2022-10-29T04:14:42.778Z,99.90
2022-10-29T04:17:13.133Z,99.90
2022-10-29T04:19:40.706Z,99.90
2022-10-29T04:28:41.348Z,99.90
2022-10-29T04:30:30.416Z,99.90
2022-10-29T04:32:59.166Z,99.90
2022-10-29T04:35:28.198Z,99.90
2022-10-29T04:37:55.827Z,99.90
2022-10-29T04:40:24.715Z,99.90
2022-10-29T04:42:52.164Z,99.90
2022-10-29T04:45:19.605Z,99.90
2022-10-29T04:47:46.901Z,99.90
2022-10-29T04:50:14.173Z,99.90
2022-10-29T04:52:41.463Z,99.90
2022-10-29T04:55:09.033Z,99.90
2022-10-29T04:57:36.330Z,99.90
2022-10-29T05:00:04.438Z,99.90
2022-10-29T05:02:31.722Z,99.90
2022-10-29T05:04:59.034Z,99.90
2022-10-29T05:07:26.445Z,99.90
2022-10-29T05:09:53.666Z,99.90
2022-10-29T05:12:20.914Z,99.90
2022-10-29T05:14:48.309Z,99.90
2022-10-29T05:17:15.653Z,99.90
2022-10-29T05:19:42.912Z,99.90
2022-10-29T05:22:10.204Z,99.90
2022-10-29T05:24:37.470Z,99.90
2022-10-29T05:27:06.873Z,99.90
2022-10-29T05:29:34.183Z,99.90
2022-10-29T05:32:01.620Z,99.90
2022-10-29T05:34:28.927Z,99.90
2022-10-29T05:36:56.219Z,99.90
2022-10-29T05:39:23.539Z,99.90
2022-10-29T05:41:50.777Z,99.90
2022-10-29T05:44:18.007Z,99.90
2022-10-29T05:46:48.991Z,99.90
2022-10-29T05:49:16.378Z,99.90
2022-10-29T05:51:43.633Z,99.90
2022-10-29T05:54:10.988Z,99.90
2022-10-29T05:56:38.215Z,99.90
2022-10-29T05:59:05.593Z,99.90
2022-10-29T06:01:32.942Z,99.90
2022-10-29T06:04:01.284Z,99.90
2022-10-29T06:06:28.679Z,99.90
2022-10-29T06:08:56.303Z,99.90
2022-10-29T06:11:23.604Z,99.90
2022-10-29T06:13:50.900Z,99.90
2022-10-29T06:16:19.192Z,99.90
2022-10-29T06:18:46.449Z,99.90
2022-10-29T06:21:13.710Z,99.90
2022-10-29T06:23:41.209Z,99.90
2022-10-29T06:26:08.811Z,99.90
2022-10-29T06:28:36.031Z,99.90
2022-10-29T06:31:03.484Z,99.90
2022-10-29T06:33:30.896Z,99.90
2022-10-29T06:36:00.350Z,99.90
2022-10-29T06:38:27.829Z,99.90
2022-10-29T06:40:55.053Z,99.90
2022-10-29T06:43:22.398Z,99.90
2022-10-29T06:45:50.200Z,99.90
2022-10-29T06:48:21.648Z,99.90
2022-10-29T06:50:50.646Z,99.90
2022-10-29T06:53:18.970Z,99.90
2022-10-29T06:55:46.327Z,99.90
2022-10-29T06:58:16.638Z,99.90
2022-10-29T07:00:44.946Z,99.90
2022-10-29T07:03:14.212Z,99.90
2022-10-29T07:05:41.599Z,99.90
2022-10-29T07:08:09.413Z,99.90
2022-10-29T07:10:37.099Z,99.90
2022-10-29T07:13:04.348Z,99.90
2022-10-29T07:15:32.083Z,99.90
2022-10-29T07:18:07.466Z,99.90
2022-10-29T07:20:37.436Z,99.90
2022-10-29T07:23:04.798Z,99.90
2022-10-29T07:25:33.446Z,99.90
2022-10-29T07:28:05.796Z,99.90
2022-10-29T07:30:33.991Z,99.90
2022-10-29T07:33:01.313Z,99.90
2022-10-29T07:35:28.678Z,99.90
2022-10-29T07:38:07.215Z,99.90
2022-10-29T07:40:47.456Z,99.90
2022-10-29T07:43:15.222Z,99.90
2022-10-29T07:45:45.110Z,99.90
2022-10-29T07:48:12.560Z,99.90
2022-10-29T07:50:39.850Z,99.90
2022-10-29T07:53:08.227Z,99.90
2022-10-29T07:55:36.274Z,99.90
2022-10-29T07:58:06.432Z,99.90
2022-10-29T08:00:38.751Z,99.90
2022-10-29T08:03:06.523Z,99.90
2022-10-29T08:05:34.197Z,99.90
2022-10-29T08:08:01.688Z,99.90
2022-10-29T08:10:30.500Z,99.70
2022-10-29T08:13:00.838Z,99.40
2022-10-29T08:15:30.815Z,99.20
2022-10-29T08:17:59.800Z,99.10
2022-10-29T08:20:28.961Z,99.30
2022-10-29T08:22:59.676Z,99.30
2022-10-29T08:25:27.383Z,99.30
2022-10-29T08:28:05.108Z,99.10
2022-10-29T08:30:33.602Z,99.00
2022-10-29T08:33:01.749Z,98.90
2022-10-29T08:35:30.131Z,98.90
2022-10-29T08:37:57.786Z,98.90
2022-10-29T08:40:46.652Z,98.80
2022-10-29T08:43:54.966Z,98.80
2022-10-29T08:46:38.844Z,98.90
2022-10-29T08:49:18.096Z,98.90
2022-10-29T08:51:59.622Z,98.80
2022-10-29T08:54:31.673Z,98.40
2022-10-29T08:57:05.938Z,98.10
2022-10-29T08:59:40.224Z,98.10
2022-10-29T09:02:17.716Z,98.00
2022-10-29T09:04:45.156Z,98.10
2022-10-29T09:07:37.922Z,98.10
2022-10-29T09:10:34.003Z,98.10
2022-10-29T09:13:25.604Z,98.10
2022-10-29T09:16:08.366Z,98.00
2022-10-29T09:18:53.389Z,97.90
2022-10-29T09:21:42.736Z,98.10
2022-10-29T09:24:36.913Z,98.20
2022-10-29T09:27:42.591Z,97.90
2022-10-29T09:30:16.181Z,98.00
2022-10-29T09:32:57.841Z,97.80
2022-10-29T09:35:36.556Z,97.70
2022-10-29T09:38:13.095Z,97.60
2022-10-29T09:40:43.134Z,97.80
2022-10-29T09:43:19.463Z,97.50
2022-10-29T09:45:55.731Z,97.40
2022-10-29T09:48:33.862Z,97.40
2022-10-29T09:51:29.269Z,97.40
2022-10-29T09:53:56.727Z,97.60
2022-10-29T09:56:24.145Z,97.40
2022-10-29T09:59:02.939Z,97.40
2022-10-29T10:01:30.327Z,97.40
2022-10-29T10:04:04.234Z,97.50
2022-10-29T10:06:55.401Z,97.60
2022-10-29T10:09:22.678Z,97.60
2022-10-29T10:11:54.258Z,97.50
2022-10-29T10:14:24.086Z,97.50
2022-10-29T10:16:59.327Z,97.40
2022-10-29T10:19:32.574Z,97.30
2022-10-29T10:22:04.986Z,97.20
2022-10-29T10:24:37.712Z,97.30
2022-10-29T10:27:20.449Z,97.30
2022-10-29T10:30:11.252Z,97.10
2022-10-29T10:32:38.642Z,97.00
2022-10-29T10:35:26.148Z,97.00
2022-10-29T10:37:54.056Z,97.00
2022-10-29T10:40:24.959Z,96.90
2022-10-29T10:42:55.921Z,96.70
2022-10-29T10:45:54.824Z,96.60
2022-10-29T10:48:26.625Z,96.90
2022-10-29T10:51:23.453Z,96.90
2022-10-29T10:53:52.109Z,96.70
2022-10-29T10:56:21.858Z,97.00
2022-10-29T10:59:03.912Z,96.90
2022-10-29T11:01:44.601Z,97.00
2022-10-29T11:04:26.858Z,97.30
2022-10-29T11:06:59.172Z,97.00
2022-10-29T11:09:33.601Z,97.00
2022-10-29T11:12:15.599Z,96.80
2022-10-29T11:14:54.469Z,96.80
2022-10-29T11:17:47.771Z,96.70
2022-10-29T11:20:26.881Z,96.60
2022-10-29T11:23:18.580Z,96.50
2022-10-29T11:25:53.118Z,96.30
2022-10-29T11:28:26.031Z,96.40
2022-10-29T11:31:27.557Z,96.50
2022-10-29T11:34:06.016Z,96.70
2022-10-29T11:36:42.480Z,96.80
2022-10-29T11:39:19.286Z,96.70
2022-10-29T11:41:59.093Z,96.50
2022-10-29T11:44:27.884Z,96.40
2022-10-29T11:47:19.209Z,96.30
2022-10-29T11:49:55.907Z,96.20
2022-10-29T11:52:41.996Z,96.20
2022-10-29T11:55:53.576Z,96.10
2022-10-29T11:58:34.221Z,96.10
2022-10-29T12:01:16.786Z,95.80
2022-10-29T12:04:01.642Z,96.00
2022-10-29T12:07:13.179Z,96.50
2022-10-29T12:10:00.774Z,96.50
2022-10-29T12:12:42.617Z,96.60
2022-10-29T12:15:25.163Z,96.40
2022-10-29T12:18:01.882Z,96.20
2022-10-29T12:21:03.974Z,96.30
2022-10-29T12:24:05.698Z,96.30
2022-10-29T12:26:41.951Z,96.30
2022-10-29T12:29:58.925Z,96.30
2022-10-29T12:32:33.755Z,96.00
2022-10-29T12:35:15.422Z,96.00
2022-10-29T12:38:08.013Z,96.10
2022-10-29T12:40:37.801Z,96.20
2022-10-29T12:43:11.818Z,96.20
2022-10-29T12:46:18.625Z,96.30
2022-10-29T12:48:59.082Z,96.30
2022-10-29T12:51:32.500Z,96.20
2022-10-29T12:54:30.960Z,96.30
2022-10-29T12:57:13.661Z,96.30
2022-10-29T12:59:42.924Z,96.40
2022-10-29T13:02:30.372Z,96.40
2022-10-29T13:05:07.095Z,96.50
2022-10-29T13:07:34.661Z,96.70
2022-10-29T13:10:23.958Z,96.90
2022-10-29T13:13:16.481Z,97.00
2022-10-29T13:15:44.730Z,97.00
2022-10-29T13:18:11.941Z,97.10
2022-10-29T13:20:47.567Z,97.00
2022-10-29T13:23:24.070Z,97.30
2022-10-29T13:26:01.344Z,97.10
2022-10-29T13:28:28.924Z,97.00
2022-10-29T13:30:59.228Z,97.10
2022-10-29T13:33:26.564Z,97.40
2022-10-29T13:35:53.773Z,97.30
2022-10-29T13:38:51.199Z,97.50
2022-10-29T13:41:29.437Z,97.70
2022-10-29T13:44:02.539Z,97.70
2022-10-29T13:46:33.756Z,97.70
2022-10-29T13:49:08.893Z,97.70
2022-10-29T13:51:49.968Z,97.90
2022-10-29T13:54:30.198Z,98.00
2022-10-29T13:57:13.084Z,97.90
2022-10-29T13:59:58.050Z,98.10
2022-10-29T14:02:43.616Z,98.10
2022-10-29T14:05:40.451Z,98.20
2022-10-29T14:08:11.947Z,98.20
2022-10-29T14:10:42.211Z,98.10
2022-10-29T14:13:31.885Z,98.20
2022-10-29T14:16:00.795Z,98.70
2022-10-29T14:18:28.751Z,98.60
2022-10-29T14:20:58.015Z,99.00
2022-10-29T14:23:28.555Z,98.70
2022-10-29T14:25:58.304Z,98.70
2022-10-29T14:28:26.062Z,98.70
2022-10-29T14:31:02.346Z,98.80
2022-10-29T14:33:37.564Z,98.70
2022-10-29T14:36:25.411Z,99.00
2022-10-29T14:39:06.249Z,99.10
2022-10-29T14:41:36.878Z,99.20
2022-10-29T14:44:20.605Z,99.20
2022-10-29T14:46:58.154Z,99.40
2022-10-29T14:49:27.001Z,99.30
2022-10-29T14:52:03.877Z,99.30
2022-10-29T14:54:36.351Z,99.50
2022-10-29T14:57:10.770Z,99.50
2022-10-29T14:59:38.476Z,99.60
2022-10-29T15:02:36.497Z,99.70
2022-10-29T15:05:06.123Z,99.80
2022-10-29T15:07:36.481Z,99.90
2022-10-29T15:10:24.412Z,99.90
2022-10-29T15:12:52.565Z,99.80
2022-10-29T15:15:26.657Z,99.90
2022-10-29T15:17:59.936Z,99.90
2022-10-29T15:20:36.459Z,99.90
2022-10-29T15:23:04.313Z,99.90
2022-10-29T15:25:37.047Z,99.90
2022-10-29T15:28:09.984Z,99.90
2022-10-29T15:30:39.083Z,99.90
2022-10-29T15:33:13.003Z,99.90
2022-10-29T15:35:56.937Z,99.90
2022-10-29T15:38:30.354Z,99.90
2022-10-29T15:41:30.165Z,99.80
2022-10-29T15:43:59.221Z,99.80
2022-10-29T15:46:29.451Z,99.90
2022-10-29T15:48:56.741Z,99.90
2022-10-29T15:51:30.090Z,99.90
2022-10-29T15:54:02.061Z,99.90
2022-10-29T15:56:31.890Z,99.90
2022-10-29T15:59:00.496Z,99.90
2022-10-29T16:01:28.607Z,99.90
2022-10-29T16:03:56.010Z,99.90
2022-10-29T16:06:23.648Z,99.90
2022-10-29T16:08:57.297Z,99.90
2022-10-29T16:11:25.443Z,99.90
2022-10-29T16:13:55.143Z,99.90
2022-10-29T16:16:25.208Z,99.90
2022-10-29T16:18:53.517Z,99.90
2022-10-29T16:21:22.828Z,99.90
2022-10-29T16:23:51.519Z,99.90
2022-10-29T16:26:21.836Z,99.90
2022-10-29T16:28:49.541Z,99.90
2022-10-29T16:31:28.285Z,99.90
2022-10-29T16:33:58.845Z,99.90
2022-10-29T16:36:26.307Z,99.90
2022-10-29T16:38:53.643Z,99.90
2022-10-29T16:41:21.809Z,99.90
2022-10-29T16:43:49.078Z,99.90
2022-10-29T16:46:16.577Z,99.90
2022-10-29T16:48:44.116Z,99.90
2022-10-29T16:51:11.752Z,99.90
2022-10-29T16:53:39.450Z,99.90
2022-10-29T16:56:07.171Z,99.90
2022-10-29T16:58:34.503Z,99.90
2022-10-29T17:01:04.050Z,99.90
2022-10-29T17:03:33.056Z,99.90
2022-10-29T17:06:09.176Z,99.90
2022-10-29T17:08:37.703Z,99.90
2022-10-29T17:11:06.582Z,99.90
2022-10-29T17:13:34.783Z,99.90
2022-10-29T17:16:10.597Z,99.90
2022-10-29T17:18:38.055Z,99.90
2022-10-29T17:21:05.702Z,99.90
2022-10-29T17:23:33.494Z,99.90
2022-10-29T17:26:01.091Z,99.90
2022-10-29T17:28:28.736Z,99.90
2022-10-29T17:30:56.528Z,99.90
2022-10-29T17:33:23.878Z,99.90
2022-10-29T17:36:01.394Z,99.90
2022-10-29T17:38:28.737Z,99.90
2022-10-29T17:40:56.043Z,99.90
2022-10-29T17:43:23.383Z,99.90
2022-10-29T17:45:50.736Z,99.90
2022-10-29T17:48:22.381Z,99.90
2022-10-29T17:50:54.391Z,99.90
2022-10-29T17:53:22.577Z,99.90
2022-10-29T17:55:50.254Z,99.90
2022-10-29T17:58:18.405Z,99.90
2022-10-29T18:00:46.663Z,99.90
2022-10-29T18:03:14.316Z,99.90
2022-10-29T18:05:42.027Z,99.90
2022-10-29T18:08:09.325Z,99.90
2022-10-29T18:10:37.159Z,99.90
2022-10-29T18:13:04.597Z,99.90
2022-10-29T18:15:31.962Z,99.90
2022-10-29T18:18:00.666Z,99.90
2022-10-29T18:20:28.237Z,99.90
2022-10-29T18:22:56.883Z,99.90
2022-10-29T18:25:24.451Z,99.90
2022-10-29T18:27:55.630Z,99.90
2022-10-29T18:30:23.119Z,99.90
2022-10-29T18:32:52.991Z,99.90
2022-10-29T18:35:20.398Z,99.90
2022-10-29T18:37:47.634Z,99.90
2022-10-29T18:40:14.935Z,99.90
2022-10-29T18:42:42.197Z,99.90
2022-10-29T18:45:10.664Z,99.90
2022-10-29T18:47:37.898Z,99.90
2022-10-29T18:50:05.571Z,99.90
2022-10-29T18:52:33.565Z,99.90
2022-10-29T18:55:00.948Z,99.90
2022-10-29T18:57:28.311Z,99.90
2022-10-29T18:59:55.915Z,99.90
2022-10-29T19:02:23.320Z,99.90
2022-10-29T19:04:50.610Z,99.90
2022-10-29T19:07:18.616Z,99.90
2022-10-29T19:09:45.986Z,99.90
2022-10-29T19:12:13.381Z,99.90
2022-10-29T19:14:40.739Z,99.90
2022-10-29T19:17:08.081Z,99.90
2022-10-29T19:19:35.474Z,99.90
2022-10-29T19:22:02.924Z,99.90
2022-10-29T19:24:30.167Z,99.90
2022-10-29T19:26:57.415Z,99.90
2022-10-29T19:29:24.709Z,99.90
2022-10-29T19:31:51.979Z,99.90
2022-10-29T19:34:19.289Z,99.90
2022-10-29T19:36:46.549Z,99.90
2022-10-29T19:39:13.839Z,99.90
2022-10-29T19:41:41.181Z,99.90
2022-10-29T19:44:08.550Z,99.90
2022-10-29T19:46:35.886Z,99.90
2022-10-29T19:49:03.566Z,99.90
2022-10-29T19:51:30.908Z,99.90
2022-10-29T19:54:01.438Z,99.90
2022-10-29T19:56:28.713Z,99.90
2022-10-29T19:58:55.978Z,99.90
2022-10-29T20:01:23.608Z,99.90
2022-10-29T20:03:50.934Z,99.90
2022-10-29T20:06:18.635Z,99.90
2022-10-29T20:08:46.014Z,99.90
2022-10-29T20:11:13.572Z,99.90
2022-10-29T20:13:40.988Z,99.90
2022-10-29T20:16:15.357Z,99.90
2022-10-29T20:18:43.139Z,99.90
2022-10-29T20:21:10.420Z,99.90
2022-10-29T20:23:37.763Z,99.90
2022-10-29T20:26:05.328Z,99.90
2022-10-29T20:28:33.210Z,99.90
2022-10-29T20:31:16.359Z,99.90
2022-10-29T20:34:10.358Z,99.90
2022-10-29T20:36:37.806Z,99.90
2022-10-29T20:39:05.205Z,99.90
2022-10-29T20:41:32.689Z,99.90
2022-10-29T20:44:01.432Z,99.90
2022-10-29T20:46:29.883Z,99.90
2022-10-29T20:48:57.315Z,99.90
2022-10-29T20:51:24.954Z,99.90
2022-10-29T20:53:53.171Z,99.90
2022-10-29T20:56:24.561Z,99.90
2022-10-29T20:58:51.922Z,99.90
2022-10-29T21:01:21.166Z,99.90
2022-10-29T21:03:52.918Z,99.90
2022-10-29T21:06:20.847Z,99.90
2022-10-29T21:08:51.169Z,99.90
2022-10-29T21:11:20.227Z,99.90
2022-10-29T21:13:47.528Z,99.90
2022-10-29T21:16:22.639Z,99.90
2022-10-29T21:18:52.614Z,99.90
2022-10-29T21:21:20.147Z,99.90
2022-10-29T21:23:47.709Z,99.90
2022-10-29T21:26:17.321Z,99.90
2022-10-29T21:28:45.282Z,99.90
2022-10-29T21:31:12.684Z,99.90
2022-10-29T21:33:40.100Z,99.90
2022-10-29T21:36:08.028Z,99.90
2022-10-29T21:38:35.690Z,99.90
2022-10-29T21:41:03.366Z,99.90
2022-10-29T21:43:30.732Z,99.90
2022-10-29T21:45:58.276Z,99.90
2022-10-29T21:48:28.947Z,99.90
2022-10-29T21:51:10.692Z,99.90
2022-10-29T21:53:37.966Z,99.90
2022-10-29T21:56:07.443Z,99.90
2022-10-29T21:58:34.748Z,99.90
2022-10-29T22:01:14.638Z,99.90
2022-10-29T22:03:44.747Z,99.90
2022-10-29T22:06:14.612Z,99.90
2022-10-29T22:08:42.634Z,99.90
2022-10-29T22:11:11.293Z,99.90
2022-10-29T22:13:38.870Z,99.90
2022-10-29T22:16:08.358Z,99.90
2022-10-29T22:18:36.187Z,99.90
2022-10-29T22:21:15.626Z,99.90
2022-10-29T22:23:50.868Z,99.90
2022-10-29T22:26:20.921Z,99.90
2022-10-29T22:28:48.414Z,99.90
2022-10-29T22:31:17.712Z,99.90
2022-10-29T22:33:45.478Z,99.90
2022-10-29T22:36:15.635Z,99.90
2022-10-29T22:38:43.430Z,99.90
2022-10-29T22:41:16.842Z,99.90
2022-10-29T22:43:44.948Z,99.90
2022-10-29T22:46:14.217Z,99.90
2022-10-29T22:48:43.679Z,99.90
2022-10-29T22:51:15.235Z,99.90
2022-10-29T22:53:43.144Z,99.90
2022-10-29T22:56:37.870Z,99.90
2022-10-29T22:59:05.906Z,99.90
2022-10-29T23:01:40.239Z,99.90
2022-10-29T23:04:11.508Z,99.90
2022-10-29T23:06:38.746Z,99.90
2022-10-29T23:09:07.339Z,99.90
2022-10-29T23:11:39.317Z,99.90
2022-10-29T23:14:06.859Z,99.90
2022-10-29T23:16:35.654Z,99.90
2022-10-29T23:19:05.057Z,99.90
2022-10-29T23:21:33.148Z,99.90
2022-10-29T23:24:00.570Z,99.90
2022-10-29T23:26:28.972Z,99.90
2022-10-29T23:28:56.415Z,99.90
2022-10-29T23:31:25.738Z,99.90
2022-10-29T23:33:55.257Z,99.90
2022-10-29T23:36:24.512Z,99.90
2022-10-29T23:38:59.526Z,99.90
2022-10-29T23:41:31.303Z,99.90
2022-10-29T23:43:59.139Z,99.90
2022-10-29T23:46:26.616Z,99.90
2022-10-29T23:48:54.147Z,99.90
2022-10-29T23:51:21.475Z,99.90
2022-10-29T23:53:51.619Z,99.90
2022-10-29T23:56:22.204Z,99.90
2022-10-29T23:58:49.455Z,99.90
